createdAt,value
2023-03-16T00:02:14.108Z,-2.40
2023-03-16T00:05:35.670Z,-2.43
2023-03-16T00:08:59.206Z,-2.44
2023-03-16T00:12:22.831Z,-2.47
2023-03-16T00:15:51.609Z,-2.47
2023-03-16T00:19:13.684Z,-2.49
2023-03-16T00:22:35.452Z,-2.49
2023-03-16T00:25:58.877Z,-2.50
2023-03-16T00:29:20.430Z,-2.50
2023-03-16T00:32:43.788Z,-2.52
2023-03-16T00:36:09.420Z,-2.53
2023-03-16T00:39:35.719Z,-2.54
2023-03-16T00:42:57.598Z,-2.53
2023-03-16T00:46:20.049Z,-2.57
2023-03-16T00:49:44.455Z,-2.51
2023-03-16T00:53:07.177Z,-2.49
2023-03-16T00:56:29.216Z,-2.44
2023-03-16T00:59:51.064Z,-2.42
2023-03-16T01:03:13.642Z,-2.36
2023-03-16T01:06:39.812Z,-2.34
2023-03-16T01:10:01.580Z,-2.29
2023-03-16T01:13:24.063Z,-2.28
2023-03-16T01:16:46.170Z,-2.19
2023-03-16T01:20:12.191Z,-2.15
2023-03-16T01:23:35.763Z,-2.22
2023-03-16T01:26:57.994Z,-2.02
2023-03-16T01:30:19.813Z,-2.02
2023-03-16T01:33:42.510Z,-1.95
2023-03-16T01:37:04.920Z,-2.03
2023-03-16T01:40:28.168Z,-1.87
2023-03-16T01:43:51.991Z,-1.87
2023-03-16T01:47:14.792Z,-1.79
2023-03-16T01:50:37.053Z,-1.86
2023-03-16T01:54:03.315Z,-1.75
2023-03-16T01:57:30.641Z,-1.68
2023-03-16T02:00:55.220Z,-1.70
2023-03-16T02:04:25.955Z,-1.67
2023-03-16T02:07:49.571Z,-1.66
2023-03-16T02:11:11.641Z,-1.59
2023-03-16T02:14:35.012Z,-1.53
2023-03-16T02:17:58.226Z,-1.52
2023-03-16T02:21:27.212Z,-1.45
2023-03-16T02:24:49.402Z,-1.45
2023-03-16T02:28:20.499Z,-1.39
2023-03-16T02:31:43.795Z,-1.40
2023-03-16T02:35:07.788Z,-1.34
2023-03-16T02:38:29.332Z,-1.33
2023-03-16T02:41:51.358Z,-1.29
2023-03-16T02:45:13.967Z,-1.25
2023-03-16T02:48:45.580Z,-1.20
2023-03-16T02:52:08.513Z,-1.18
2023-03-16T02:55:30.413Z,-1.21
2023-03-16T02:58:52.593Z,-1.19
2023-03-16T03:02:14.710Z,-1.15
2023-03-16T03:05:38.472Z,-1.14
2023-03-16T03:09:00.538Z,-1.17
2023-03-16T03:12:22.288Z,-1.14
2023-03-16T03:15:44.107Z,-1.11
2023-03-16T03:19:05.829Z,-1.06
2023-03-16T03:22:29.736Z,-1.04
2023-03-16T03:25:51.552Z,-1.04
2023-03-16T03:29:13.763Z,-1.05
2023-03-16T03:32:35.862Z,-1.01
2023-03-16T03:35:59.416Z,-0.96
2023-03-16T03:39:22.518Z,-0.94
2023-03-16T03:42:44.835Z,-0.93
2023-03-16T03:46:07.604Z,-1.02
2023-03-16T03:49:29.922Z,-0.93
2023-03-16T03:52:52.091Z,-0.94
2023-03-16T03:56:15.357Z,-0.92
2023-03-16T03:59:42.680Z,-0.90
2023-03-16T04:03:05.384Z,-0.91
2023-03-16T04:06:27.411Z,-0.92
2023-03-16T04:09:49.118Z,-0.96
2023-03-16T04:13:12.284Z,-0.92
2023-03-16T04:16:34.586Z,-0.95
2023-03-16T04:19:56.610Z,-0.98
2023-03-16T04:23:18.485Z,-0.91
2023-03-16T04:26:40.329Z,-0.97
2023-03-16T04:30:04.149Z,-0.97
2023-03-16T04:33:26.574Z,-1.01
2023-03-16T04:36:48.474Z,-0.93
2023-03-16T04:40:16.841Z,-0.92
2023-03-16T04:43:39.070Z,-0.90
2023-03-16T04:47:02.568Z,-0.89
2023-03-16T04:50:25.586Z,-0.87
2023-03-16T04:53:47.616Z,-0.88
2023-03-16T04:57:09.579Z,-0.83
2023-03-16T05:00:32.225Z,-0.81
2023-03-16T05:03:57.507Z,-0.82
2023-03-16T05:07:20.550Z,-0.79
2023-03-16T05:10:42.668Z,-0.80
2023-03-16T05:14:05.072Z,-0.87
2023-03-16T05:17:26.930Z,-0.78
2023-03-16T05:20:53.719Z,-0.73
2023-03-16T05:24:15.949Z,-0.87
2023-03-16T05:27:37.835Z,-0.64
2023-03-16T05:30:59.968Z,-0.66
2023-03-16T05:34:21.865Z,-0.58
2023-03-16T05:37:45.826Z,-0.52
2023-03-16T05:41:07.653Z,-0.50
2023-03-16T05:44:29.527Z,-0.43
2023-03-16T05:47:52.008Z,-0.39
2023-03-16T05:51:14.407Z,-0.39
2023-03-16T05:54:38.025Z,-0.29
2023-03-16T05:58:00.798Z,-0.26
2023-03-16T06:01:23.897Z,-0.31
2023-03-16T06:04:46.159Z,-0.17
2023-03-16T06:08:09.279Z,-0.13
2023-03-16T06:11:33.211Z,-0.12
2023-03-16T06:14:55.284Z,-0.10
2023-03-16T06:18:18.031Z,-0.09
2023-03-16T06:21:39.651Z,-0.13
2023-03-16T06:25:01.667Z,-0.02
2023-03-16T06:28:24.693Z,-0.11
2023-03-16T06:31:46.814Z,0.13
2023-03-16T06:35:09.687Z,0.19
2023-03-16T06:38:31.650Z,0.24
2023-03-16T06:41:53.598Z,0.30
2023-03-16T06:45:18.524Z,0.36
2023-03-16T06:48:41.980Z,0.39
2023-03-16T06:52:04.134Z,0.43
2023-03-16T06:55:25.779Z,0.51
2023-03-16T06:58:47.671Z,0.58
2023-03-16T07:02:12.149Z,0.59
2023-03-16T07:05:33.803Z,0.70
2023-03-16T07:08:55.637Z,0.72
2023-03-16T07:12:17.426Z,0.82
2023-03-16T07:15:39.347Z,0.82
2023-03-16T07:19:02.560Z,0.87
2023-03-16T07:22:24.416Z,0.99
2023-03-16T07:25:46.208Z,1.13
2023-03-16T07:29:08.201Z,1.23
2023-03-16T07:32:30.072Z,1.35
2023-03-16T07:35:53.354Z,1.49
2023-03-16T07:39:17.821Z,1.59
2023-03-16T07:42:39.781Z,1.68
2023-03-16T07:46:02.599Z,1.72
2023-03-16T07:49:26.873Z,1.87
2023-03-16T07:52:50.061Z,2.00
2023-03-16T07:56:12.573Z,2.20
2023-03-16T07:59:34.264Z,2.31
2023-03-16T08:02:57.641Z,2.31
2023-03-16T08:06:19.508Z,2.07
2023-03-16T08:09:43.084Z,2.18
2023-03-16T08:13:05.997Z,2.29
2023-03-16T08:16:28.798Z,2.35
2023-03-16T08:19:51.545Z,2.40
2023-03-16T08:23:15.646Z,2.53
2023-03-16T08:26:39.667Z,2.66
2023-03-16T08:30:05.157Z,2.89
2023-03-16T08:33:28.005Z,2.99
2023-03-16T08:36:49.842Z,2.99
2023-03-16T08:40:15.366Z,2.98
2023-03-16T08:43:38.698Z,2.95
2023-03-16T08:47:01.691Z,2.78
2023-03-16T08:50:23.457Z,2.91
2023-03-16T08:53:45.451Z,3.11
2023-03-16T08:57:07.428Z,3.30
2023-03-16T09:00:31.277Z,3.63
2023-03-16T09:03:55.244Z,3.75
2023-03-16T09:07:17.054Z,3.79
2023-03-16T09:10:38.787Z,3.70
2023-03-16T09:14:00.927Z,3.49
2023-03-16T09:17:24.295Z,3.18
2023-03-16T09:20:47.901Z,3.10
2023-03-16T09:24:10.283Z,3.09
2023-03-16T09:27:32.420Z,3.03
2023-03-16T09:30:55.083Z,3.00
2023-03-16T09:34:18.060Z,3.07
2023-03-16T09:37:45.625Z,3.08
2023-03-16T09:41:32.389Z,3.22
2023-03-16T09:45:05.626Z,3.24
2023-03-16T09:48:29.450Z,3.27
2023-03-16T09:52:00.613Z,3.36
2023-03-16T09:55:29.205Z,3.56
2023-03-16T09:58:51.109Z,3.62
2023-03-16T10:02:42.814Z,3.65
2023-03-16T10:06:11.317Z,3.56
2023-03-16T10:09:39.019Z,3.55
2023-03-16T10:13:02.750Z,3.54
2023-03-16T10:16:32.033Z,3.57
2023-03-16T10:19:58.170Z,3.67
2023-03-16T10:23:23.098Z,3.65
2023-03-16T10:26:56.511Z,3.74
2023-03-16T10:30:25.993Z,3.64
2023-03-16T10:33:47.999Z,3.58
2023-03-16T10:37:14.521Z,3.62
2023-03-16T10:40:39.832Z,3.76
2023-03-16T10:44:12.129Z,3.88
2023-03-16T10:47:34.968Z,4.04
2023-03-16T10:51:00.147Z,4.13
2023-03-16T10:54:29.511Z,4.18
2023-03-16T10:57:53.750Z,4.17
2023-03-16T11:01:21.831Z,4.12
2023-03-16T11:04:43.519Z,4.22
2023-03-16T11:08:10.949Z,4.41
2023-03-16T11:11:34.037Z,4.28
2023-03-16T11:14:56.371Z,4.13
2023-03-16T11:18:32.280Z,4.22
2023-03-16T11:21:58.355Z,4.22
2023-03-16T11:25:28.889Z,4.23
2023-03-16T11:29:01.810Z,4.29
2023-03-16T11:32:27.616Z,4.35
2023-03-16T11:35:59.834Z,4.39
2023-03-16T11:39:41.857Z,4.54
2023-03-16T11:43:16.030Z,4.63
2023-03-16T11:46:43.585Z,4.65
2023-03-16T11:50:13.555Z,4.67
2023-03-16T11:54:02.722Z,4.66
2023-03-16T11:57:35.116Z,4.72
2023-03-16T12:01:07.580Z,4.79
2023-03-16T12:04:46.621Z,4.82
2023-03-16T12:08:18.174Z,4.97
2023-03-16T12:11:48.235Z,4.91
2023-03-16T12:15:21.730Z,4.94
2023-03-16T12:18:48.895Z,4.93
2023-03-16T12:22:20.103Z,4.97
2023-03-16T12:25:47.674Z,4.89
2023-03-16T12:29:21.314Z,4.80
2023-03-16T12:32:48.011Z,4.69
2023-03-16T12:36:34.359Z,4.59
2023-03-16T12:40:09.226Z,4.56
2023-03-16T12:43:58.355Z,4.56
2023-03-16T12:47:31.478Z,4.42
2023-03-16T12:50:55.891Z,4.53
2023-03-16T12:54:22.443Z,4.46
2023-03-16T12:57:46.865Z,4.44
2023-03-16T13:01:12.598Z,4.33
2023-03-16T13:04:41.796Z,4.42
2023-03-16T13:08:10.053Z,4.42
2023-03-16T13:11:43.898Z,4.34
2023-03-16T13:15:27.615Z,4.39
2023-03-16T13:18:49.340Z,4.38
2023-03-16T13:22:28.596Z,4.38
2023-03-16T13:26:03.401Z,4.39
2023-03-16T13:29:27.566Z,4.46
2023-03-16T13:32:49.802Z,4.47
2023-03-16T13:36:14.718Z,4.50
2023-03-16T13:39:38.062Z,4.51
2023-03-16T13:43:00.906Z,4.50
2023-03-16T13:46:29.096Z,4.46
2023-03-16T13:49:55.746Z,4.44
2023-03-16T13:53:30.558Z,4.38
2023-03-16T13:56:57.481Z,4.40
2023-03-16T14:00:24.953Z,4.38
2023-03-16T14:03:46.826Z,4.30
2023-03-16T14:07:17.908Z,4.43
2023-03-16T14:10:40.523Z,4.41
2023-03-16T14:14:16.057Z,4.38
2023-03-16T14:17:38.158Z,4.34
2023-03-16T14:20:59.853Z,4.28
2023-03-16T14:24:30.870Z,4.28
2023-03-16T14:28:00.372Z,4.07
2023-03-16T14:31:23.557Z,4.24
2023-03-16T14:34:50.982Z,4.22
2023-03-16T14:38:23.628Z,4.13
2023-03-16T14:41:45.815Z,4.19
2023-03-16T14:45:14.670Z,4.13
2023-03-16T14:48:38.918Z,4.11
2023-03-16T14:52:05.153Z,4.07
2023-03-16T14:55:27.172Z,4.04
2023-03-16T14:58:49.129Z,3.97
2023-03-16T15:02:18.147Z,3.94
2023-03-16T15:05:43.551Z,3.87
2023-03-16T15:09:05.560Z,3.84
2023-03-16T15:12:27.566Z,3.84
2023-03-16T15:15:49.725Z,3.86
2023-03-16T15:19:11.975Z,3.78
2023-03-16T15:22:38.727Z,3.84
2023-03-16T15:26:02.963Z,3.76
2023-03-16T15:29:25.017Z,3.84
2023-03-16T15:32:47.539Z,3.83
2023-03-16T15:36:16.112Z,3.80
2023-03-16T15:39:40.296Z,3.80
2023-03-16T15:43:02.802Z,3.72
2023-03-16T15:46:24.784Z,3.66
2023-03-16T15:49:48.315Z,3.54
2023-03-16T15:53:29.246Z,3.39
2023-03-16T15:56:54.910Z,3.28
2023-03-16T16:00:28.613Z,3.15
2023-03-16T16:03:51.216Z,3.03
2023-03-16T16:07:14.664Z,2.90
2023-03-16T16:10:39.469Z,2.79
2023-03-16T16:14:02.780Z,2.62
2023-03-16T16:17:42.597Z,2.52
2023-03-16T16:21:15.045Z,2.42
2023-03-16T16:24:37.984Z,2.27
2023-03-16T16:28:00.517Z,2.15
2023-03-16T16:31:25.021Z,1.95
2023-03-16T16:35:01.749Z,1.89
2023-03-16T16:38:26.316Z,1.77
2023-03-16T16:41:51.106Z,1.65
2023-03-16T16:45:19.487Z,1.53
2023-03-16T16:48:45.367Z,1.35
2023-03-16T16:52:12.168Z,1.28
2023-03-16T16:55:34.756Z,1.16
2023-03-16T16:58:58.774Z,1.02
2023-03-16T17:02:29.666Z,0.95
2023-03-16T17:05:54.079Z,0.77
2023-03-16T17:09:16.401Z,0.81
2023-03-16T17:12:39.453Z,0.76
2023-03-16T17:16:01.401Z,0.71
2023-03-16T17:19:25.637Z,0.60
2023-03-16T17:22:51.684Z,0.58
2023-03-16T17:26:17.683Z,0.50
2023-03-16T17:29:42.037Z,0.48
2023-03-16T17:33:08.937Z,0.42
2023-03-16T17:36:31.539Z,0.41
2023-03-16T17:39:57.512Z,0.38
2023-03-16T17:43:22.821Z,0.35
2023-03-16T17:46:47.136Z,0.32
2023-03-16T17:50:18.058Z,0.29
2023-03-16T17:53:40.143Z,0.21
2023-03-16T17:57:04.009Z,0.14
2023-03-16T18:00:32.176Z,0.07
2023-03-16T18:03:54.836Z,-0.01
2023-03-16T18:07:17.113Z,-0.08
2023-03-16T18:10:40.100Z,-0.16
2023-03-16T18:14:04.451Z,-0.22
2023-03-16T18:17:31.646Z,-0.35
2023-03-16T18:20:56.241Z,-0.51
2023-03-16T18:24:19.764Z,-0.49
2023-03-16T18:27:42.424Z,-0.61
2023-03-16T18:31:08.283Z,-0.69
2023-03-16T18:34:34.944Z,-0.73
2023-03-16T18:37:58.882Z,-0.73
2023-03-16T18:41:23.895Z,-0.88
2023-03-16T18:44:46.771Z,-0.87
2023-03-16T18:48:23.909Z,-0.98
2023-03-16T18:51:49.605Z,-1.05
2023-03-16T18:55:17.953Z,-1.13
2023-03-16T18:58:39.635Z,-1.24
2023-03-16T19:02:02.564Z,-1.29
2023-03-16T19:05:33.962Z,-1.32
2023-03-16T19:08:57.743Z,-1.32
2023-03-16T19:12:22.355Z,-1.36
2023-03-16T19:15:44.632Z,-1.42
2023-03-16T19:19:07.177Z,-1.39
2023-03-16T19:22:31.476Z,-1.42
2023-03-16T19:25:56.249Z,-1.56
2023-03-16T19:29:21.421Z,-1.52
2023-03-16T19:32:43.356Z,-1.63
2023-03-16T19:36:06.366Z,-1.66
2023-03-16T19:39:30.945Z,-1.76
2023-03-16T19:42:54.223Z,-1.82
2023-03-16T19:46:19.212Z,-1.85
2023-03-16T19:49:41.770Z,-1.88
2023-03-16T19:53:03.415Z,-1.95
2023-03-16T19:56:27.685Z,-1.99
2023-03-16T19:59:53.981Z,-2.02
2023-03-16T20:03:16.667Z,-2.14
2023-03-16T20:06:40.212Z,-2.16
2023-03-16T20:10:03.067Z,-2.19
2023-03-16T20:13:27.254Z,-2.28
2023-03-16T20:16:50.428Z,-2.45
2023-03-16T20:20:21.232Z,-2.42
2023-03-16T20:23:44.967Z,-2.38
2023-03-16T20:27:12.822Z,-2.48
2023-03-16T20:30:37.764Z,-2.69
2023-03-16T20:34:03.005Z,-2.58
2023-03-16T20:37:27.564Z,-2.64
2023-03-16T20:40:52.362Z,-2.71
2023-03-16T20:44:17.038Z,-2.76
2023-03-16T20:47:40.386Z,-2.80
2023-03-16T20:51:02.970Z,-2.85
2023-03-16T20:54:24.923Z,-2.95
2023-03-16T20:57:47.859Z,-3.05
2023-03-16T21:01:17.575Z,-3.05
2023-03-16T21:04:42.844Z,-3.13
2023-03-16T21:08:04.856Z,-3.26
2023-03-16T21:11:30.954Z,-3.30
2023-03-16T21:16:00.195Z,-3.34
2023-03-16T21:19:23.985Z,-3.48
2023-03-16T21:22:47.191Z,-3.39
2023-03-16T21:26:09.328Z,-3.42
2023-03-16T21:29:31.290Z,-3.44
2023-03-16T21:32:53.953Z,-3.42
2023-03-16T21:36:18.310Z,-3.44
2023-03-16T21:39:41.845Z,-3.40
2023-03-16T21:43:03.568Z,-3.36
2023-03-16T21:46:25.905Z,-3.38
2023-03-16T21:49:47.879Z,-3.36
2023-03-16T21:53:20.874Z,-3.37
2023-03-16T21:56:44.270Z,-3.42
2023-03-16T22:00:07.093Z,-3.41
2023-03-16T22:03:44.238Z,-3.46
2023-03-16T22:07:12.809Z,-3.39
2023-03-16T22:10:35.125Z,-3.53
2023-03-16T22:13:59.640Z,-3.40
2023-03-16T22:17:24.138Z,-3.34
2023-03-16T22:20:46.583Z,-3.35
2023-03-16T22:24:16.586Z,-3.41
2023-03-16T22:27:39.357Z,-3.38
2023-03-16T22:31:05.142Z,-3.43
2023-03-16T22:34:31.589Z,-3.43
2023-03-16T22:37:54.757Z,-3.52
2023-03-16T22:41:18.296Z,-3.40
2023-03-16T22:44:40.193Z,-3.38
2023-03-16T22:48:09.216Z,-3.36
2023-03-16T22:51:32.879Z,-3.39
2023-03-16T22:54:54.701Z,-3.43
2023-03-16T22:58:20.759Z,-3.51
2023-03-16T23:01:44.865Z,-3.49
2023-03-16T23:05:20.049Z,-3.59
2023-03-16T23:08:42.106Z,-3.55
2023-03-16T23:12:04.399Z,-3.53
2023-03-16T23:15:28.732Z,-3.57
2023-03-16T23:18:52.120Z,-3.60
2023-03-16T23:22:15.841Z,-3.60
2023-03-16T23:25:37.744Z,-3.63
2023-03-16T23:29:00.003Z,-3.61
2023-03-16T23:32:22.069Z,-3.60
2023-03-16T23:35:46.694Z,-3.60
2023-03-16T23:39:11.694Z,-3.65
2023-03-16T23:42:33.550Z,-3.68
2023-03-16T23:45:55.303Z,-3.68
2023-03-16T23:49:21.706Z,-3.66
2023-03-16T23:52:43.698Z,-3.69
2023-03-16T23:56:10.860Z,-3.76
2023-03-16T23:59:33.225Z,-3.95
